PWSweather.com
Personal Weather Stations
Station Observations
WATERF01
WaterfordIE

WaterfordIE

Lat: 52.2412507, Lon: -7.1414691

Elevation: 65

Station Type: Davis Vantage Vue

www.waterfordweather.com

High Low Average
Temperature 67.6°F19.8°C 53.6°F12.0°C 59.8°F15.4°C
Dew Point 53.1°F11.7°C 45.9°F7.7°C 49.5°F9.7°C
Winds 11.5 mph 18.5 kmh Calm Calm 3.0 mph WNW4.8 kmh WNW
Wind Gusts 19.6 mph31.5 kmh -- 6.0 mph9.7 kmh
Humidity 87% 49% 70%
Pressure 29.93 in1013.5 mb 29.75 in1007.5 mb -
Precipitation 0.01 in0.3 mm - -
Hour Temp Dew Point Humidity Winds Wind Gusts Pressure Precip Precip Rate Daily Precip Total
12:00 AM 56.0°F13.3°C 49.6°F9.8°C 79% 3.5 mph W5.6 kmh W 5.8 mph9.3 kmh 29.76 in1007.8 mb - 0.00 in0.0 mm 0.00 in0.0 mm
12:10 AM 56.1°F13.4°C 49.7°F9.8°C 79% 3.5 mph W5.6 kmh W 5.8 mph9.3 kmh 29.76 in1007.8 mb - 0.00 in0.0 mm 0.00 in0.0 mm
12:20 AM 56.0°F13.3°C 49.6°F9.8°C 79% 4.6 mph WSW7.4 kmh WSW 5.8 mph9.3 kmh 29.76 in1007.8 mb - 0.00 in0.0 mm 0.00 in0.0 mm
12:30 AM 55.9°F13.3°C 49.9°F9.9°C 80% 2.3 mph SW3.7 kmh SW 5.8 mph9.3 kmh 29.76 in1007.8 mb - 0.00 in0.0 mm 0.00 in0.0 mm
12:40 AM 55.8°F13.2°C 49.7°F9.8°C 80% Calm Calm 1.2 mph1.9 kmh 29.75 in1007.5 mb - 0.00 in0.0 mm 0.00 in0.0 mm
12:50 AM 55.8°F13.2°C 50.1°F10.1°C 81% Calm Calm -- 29.75 in1007.5 mb - 0.00 in0.0 mm 0.00 in0.0 mm
01:00 AM 55.8°F13.2°C 50.1°F10.1°C 81% 1.2 mph NW1.9 kmh NW 4.6 mph7.4 kmh 29.75 in1007.5 mb - 0.00 in0.0 mm 0.00 in0.0 mm
01:10 AM 55.9°F13.3°C 50.5°F10.3°C 82% 3.5 mph WNW5.6 kmh WNW 5.8 mph9.3 kmh 29.75 in1007.5 mb - 0.00 in0.0 mm 0.00 in0.0 mm
01:20 AM 56.1°F13.4°C 50.7°F10.4°C 82% Calm Calm -- 29.75 in1007.5 mb - 0.00 in0.0 mm 0.00 in0.0 mm
01:30 AM 56.1°F13.4°C 50.7°F10.4°C 82% Calm Calm -- 29.75 in1007.5 mb - 0.00 in0.0 mm 0.00 in0.0 mm
01:40 AM 56.2°F13.4°C 50.8°F10.4°C 82% Calm Calm -- 29.75 in1007.5 mb - 0.00 in0.0 mm 0.00 in0.0 mm
01:50 AM 56.2°F13.4°C 50.8°F10.4°C 82% 1.2 mph WSW1.9 kmh WSW 4.6 mph7.4 kmh 29.75 in1007.5 mb - 0.00 in0.0 mm 0.00 in0.0 mm
02:00 AM 56.2°F13.4°C 51.1°F10.6°C 83% 2.3 mph WNW3.7 kmh WNW 5.8 mph9.3 kmh 29.75 in1007.5 mb - 0.00 in0.0 mm 0.00 in0.0 mm
02:10 AM 56.1°F13.4°C 51.0°F10.6°C 83% 3.5 mph W5.6 kmh W 5.8 mph9.3 kmh 29.75 in1007.5 mb - 0.00 in0.0 mm 0.00 in0.0 mm
02:20 AM 56.3°F13.5°C 51.2°F10.7°C 83% 2.3 mph WNW3.7 kmh WNW 8.1 mph13.0 kmh 29.75 in1007.5 mb - 0.00 in0.0 mm 0.00 in0.0 mm
02:30 AM 56.4°F13.6°C 51.3°F10.7°C 83% Calm Calm -- 29.75 in1007.5 mb - 0.00 in0.0 mm 0.00 in0.0 mm
02:40 AM 56.3°F13.5°C 51.2°F10.7°C 83% Calm Calm -- 29.75 in1007.5 mb - 0.00 in0.0 mm 0.00 in0.0 mm
02:50 AM 56.2°F13.4°C 51.1°F10.6°C 83% Calm Calm -- 29.75 in1007.5 mb - 0.00 in0.0 mm 0.00 in0.0 mm
03:00 AM 56.1°F13.4°C 51.3°F10.7°C 84% Calm Calm -- 29.75 in1007.5 mb - 0.00 in0.0 mm 0.00 in0.0 mm
03:10 AM 56.1°F13.4°C 51.3°F10.7°C 84% Calm Calm -- 29.75 in1007.5 mb - 0.00 in0.0 mm 0.00 in0.0 mm
03:20 AM 56.1°F13.4°C 51.3°F10.7°C 84% Calm Calm -- 29.75 in1007.5 mb - 0.00 in0.0 mm 0.00 in0.0 mm
03:30 AM 56.1°F13.4°C 51.3°F10.7°C 84% Calm Calm -- 29.75 in1007.5 mb - 0.00 in0.0 mm 0.00 in0.0 mm
03:40 AM 56.1°F13.4°C 51.7°F10.9°C 85% Calm Calm -- 29.75 in1007.5 mb - 0.00 in0.0 mm 0.00 in0.0 mm
03:50 AM 55.9°F13.3°C 51.5°F10.8°C 85% Calm Calm -- 29.75 in1007.5 mb - 0.00 in0.0 mm 0.00 in0.0 mm
04:00 AM 55.9°F13.3°C 51.5°F10.8°C 85% Calm Calm -- 29.75 in1007.5 mb - 0.00 in0.0 mm 0.00 in0.0 mm
04:10 AM 56.0°F13.3°C 51.6°F10.9°C 85% Calm Calm -- 29.75 in1007.5 mb - 0.00 in0.0 mm 0.00 in0.0 mm
04:20 AM 56.0°F13.3°C 51.6°F10.9°C 85% Calm Calm -- 29.75 in1007.5 mb - 0.00 in0.0 mm 0.00 in0.0 mm
04:30 AM 56.0°F13.3°C 51.6°F10.9°C 85% Calm Calm -- 29.75 in1007.5 mb - 0.00 in0.0 mm 0.00 in0.0 mm
04:40 AM 56.1°F13.4°C 51.7°F10.9°C 85% Calm Calm 2.3 mph3.7 kmh 29.75 in1007.5 mb - 0.00 in0.0 mm 0.00 in0.0 mm
04:50 AM 56.2°F13.4°C 51.7°F10.9°C 85% Calm Calm -- 29.75 in1007.5 mb - 0.00 in0.0 mm 0.00 in0.0 mm
05:00 AM 56.3°F13.5°C 52.1°F11.2°C 86% Calm Calm -- 29.75 in1007.5 mb - 0.00 in0.0 mm 0.00 in0.0 mm
05:10 AM 56.1°F13.4°C 52.0°F11.1°C 86% Calm Calm -- 29.75 in1007.5 mb - 0.00 in0.0 mm 0.00 in0.0 mm
05:20 AM 56.1°F13.4°C 52.0°F11.1°C 86% Calm Calm -- 29.75 in1007.5 mb - 0.00 in0.0 mm 0.00 in0.0 mm
05:30 AM 56.1°F13.4°C 52.3°F11.3°C 87% Calm Calm -- 29.75 in1007.5 mb - 0.00 in0.0 mm 0.00 in0.0 mm
05:40 AM 56.0°F13.3°C 52.2°F11.2°C 87% Calm Calm -- 29.75 in1007.5 mb - 0.00 in0.0 mm 0.00 in0.0 mm
05:50 AM 55.9°F13.3°C 51.8°F11.0°C 86% Calm Calm -- 29.76 in1007.8 mb - 0.00 in0.0 mm 0.00 in0.0 mm
06:00 AM 56.0°F13.3°C 51.9°F11.1°C 86% Calm Calm -- 29.76 in1007.8 mb - 0.00 in0.0 mm 0.00 in0.0 mm
06:10 AM 56.4°F13.6°C 52.2°F11.2°C 86% Calm Calm 2.3 mph3.7 kmh 29.77 in1008.1 mb - 0.00 in0.0 mm 0.00 in0.0 mm
06:20 AM 56.5°F13.6°C 52.4°F11.3°C 86% Calm Calm -- 29.77 in1008.1 mb - 0.00 in0.0 mm 0.00 in0.0 mm
06:30 AM 56.6°F13.7°C 52.5°F11.4°C 86% 2.3 mph NW3.7 kmh NW 4.6 mph7.4 kmh 29.77 in1008.1 mb - 0.00 in0.0 mm 0.00 in0.0 mm
06:40 AM 56.5°F13.6°C 52.0°F11.1°C 85% Calm Calm -- 29.77 in1008.1 mb - 0.00 in0.0 mm 0.00 in0.0 mm
06:50 AM 56.3°F13.5°C 51.6°F10.9°C 84% 2.3 mph WNW3.7 kmh WNW 2.3 mph3.7 kmh 29.78 in1008.5 mb - 0.00 in0.0 mm 0.00 in0.0 mm
07:00 AM 56.6°F13.7°C 51.5°F10.8°C 83% Calm Calm -- 29.78 in1008.5 mb - 0.00 in0.0 mm 0.00 in0.0 mm
07:10 AM 56.6°F13.7°C 51.5°F10.8°C 83% 1.2 mph NW1.9 kmh NW 8.1 mph13.0 kmh 29.78 in1008.5 mb - 0.00 in0.0 mm 0.00 in0.0 mm
07:20 AM 57.0°F13.9°C 51.6°F10.9°C 82% 3.5 mph WNW5.6 kmh WNW 5.8 mph9.3 kmh 29.79 in1008.8 mb - 0.00 in0.0 mm 0.00 in0.0 mm
07:30 AM 57.9°F14.4°C 51.8°F11.0°C 80% 3.5 mph NW5.6 kmh NW 5.8 mph9.3 kmh 29.79 in1008.8 mb - 0.00 in0.0 mm 0.00 in0.0 mm
07:40 AM 58.5°F14.7°C 51.7°F10.9°C 78% 5.8 mph WNW9.3 kmh WNW 6.9 mph11.1 kmh 29.79 in1008.8 mb - 0.00 in0.0 mm 0.00 in0.0 mm
07:50 AM 58.8°F14.9°C 51.6°F10.9°C 77% 5.8 mph NW9.3 kmh NW 9.2 mph14.8 kmh 29.80 in1009.1 mb - 0.00 in0.0 mm 0.00 in0.0 mm
08:00 AM 59.1°F15.1°C 51.9°F11.1°C 77% 4.6 mph NW7.4 kmh NW 6.9 mph11.1 kmh 29.80 in1009.1 mb - 0.00 in0.0 mm 0.00 in0.0 mm
08:10 AM 59.5°F15.3°C 51.2°F10.7°C 74% 6.9 mph WNW11.1 kmh WNW 11.5 mph18.5 kmh 29.80 in1009.1 mb - 0.00 in0.0 mm 0.00 in0.0 mm
08:20 AM 59.2°F15.1°C 50.5°F10.3°C 73% 6.9 mph NW11.1 kmh NW 11.5 mph18.5 kmh 29.80 in1009.1 mb - 0.00 in0.0 mm 0.00 in0.0 mm
08:30 AM 59.8°F15.4°C 51.5°F10.8°C 74% 5.8 mph WNW9.3 kmh WNW 8.1 mph13.0 kmh 29.80 in1009.1 mb - 0.00 in0.0 mm 0.00 in0.0 mm
08:40 AM 59.8°F15.4°C 51.1°F10.6°C 73% 5.8 mph WNW9.3 kmh WNW 5.8 mph9.3 kmh 29.81 in1009.5 mb - 0.00 in0.0 mm 0.00 in0.0 mm
08:50 AM 60.2°F15.7°C 51.1°F10.6°C 72% 5.8 mph WNW9.3 kmh WNW 11.5 mph18.5 kmh 29.81 in1009.5 mb - 0.00 in0.0 mm 0.00 in0.0 mm
09:00 AM 60.2°F15.7°C 51.5°F10.8°C 73% 4.6 mph NW7.4 kmh NW 6.9 mph11.1 kmh 29.81 in1009.5 mb - 0.00 in0.0 mm 0.00 in0.0 mm
09:10 AM 60.5°F15.8°C 51.0°F10.6°C 71% 8.1 mph NW13.0 kmh NW 12.7 mph20.4 kmh 29.81 in1009.5 mb - 0.00 in0.0 mm 0.00 in0.0 mm
09:20 AM 61.1°F16.2°C 51.2°F10.7°C 70% 9.2 mph NW14.8 kmh NW 13.8 mph22.2 kmh 29.82 in1009.8 mb - 0.00 in0.0 mm 0.00 in0.0 mm
09:30 AM 61.2°F16.2°C 51.7°F10.9°C 71% 5.8 mph NW9.3 kmh NW 8.1 mph13.0 kmh 29.82 in1009.8 mb - 0.00 in0.0 mm 0.00 in0.0 mm
09:40 AM 61.0°F16.1°C 51.1°F10.6°C 70% 3.5 mph WNW5.6 kmh WNW 6.9 mph11.1 kmh 29.82 in1009.8 mb - 0.00 in0.0 mm 0.00 in0.0 mm
09:50 AM 61.2°F16.2°C 50.2°F10.1°C 67% 8.1 mph WNW13.0 kmh WNW 12.7 mph20.4 kmh 29.82 in1009.8 mb - 0.00 in0.0 mm 0.00 in0.0 mm
10:00 AM 60.9°F16.1°C 49.9°F9.9°C 67% 4.6 mph WSW7.4 kmh WSW 8.1 mph13.0 kmh 29.82 in1009.8 mb - 0.00 in0.0 mm 0.00 in0.0 mm
10:10 AM 60.9°F16.1°C 49.5°F9.7°C 66% 6.9 mph WNW11.1 kmh WNW 11.5 mph18.5 kmh 29.83 in1010.2 mb - 0.00 in0.0 mm 0.00 in0.0 mm
10:20 AM 61.2°F16.2°C 49.7°F9.8°C 66% 5.8 mph NW9.3 kmh NW 8.1 mph13.0 kmh 29.83 in1010.2 mb - 0.00 in0.0 mm 0.00 in0.0 mm
10:30 AM 61.4°F16.3°C 50.3°F10.2°C 67% 4.6 mph NW7.4 kmh NW 8.1 mph13.0 kmh 29.83 in1010.2 mb - 0.00 in0.0 mm 0.00 in0.0 mm
10:40 AM 62.0°F16.7°C 50.5°F10.3°C 66% 4.6 mph WNW7.4 kmh WNW 9.2 mph14.8 kmh 29.83 in1010.2 mb - 0.00 in0.0 mm 0.00 in0.0 mm
10:50 AM 62.6°F17.0°C 50.2°F10.1°C 64% 6.9 mph NW11.1 kmh NW 11.5 mph18.5 kmh 29.84 in1010.5 mb - 0.00 in0.0 mm 0.00 in0.0 mm
11:00 AM 62.2°F16.8°C 49.4°F9.7°C 63% 9.2 mph NW14.8 kmh NW 13.8 mph22.2 kmh 29.84 in1010.5 mb - 0.00 in0.0 mm 0.00 in0.0 mm
11:10 AM 62.4°F16.9°C 50.4°F10.2°C 65% 10.4 mph NW16.7 kmh NW 19.6 mph31.5 kmh 29.84 in1010.5 mb - 0.00 in0.0 mm 0.00 in0.0 mm
11:20 AM 62.2°F16.8°C 47.7°F8.7°C 59% 9.2 mph NNW14.8 kmh NNW 13.8 mph22.2 kmh 29.84 in1010.5 mb - 0.00 in0.0 mm 0.00 in0.0 mm
11:30 AM 62.3°F16.8°C 47.3°F8.5°C 58% 6.9 mph NW11.1 kmh NW 12.7 mph20.4 kmh 29.84 in1010.5 mb - 0.00 in0.0 mm 0.00 in0.0 mm
11:40 AM 63.0°F17.2°C 47.5°F8.6°C 57% 11.5 mph NNW18.5 kmh NNW 18.4 mph29.6 kmh 29.84 in1010.5 mb - 0.00 in0.0 mm 0.00 in0.0 mm
11:50 AM 63.5°F17.5°C 48.5°F9.2°C 58% 8.1 mph NW13.0 kmh NW 12.7 mph20.4 kmh 29.84 in1010.5 mb - 0.00 in0.0 mm 0.00 in0.0 mm
12:00 PM 63.7°F17.6°C 48.6°F9.2°C 58% 4.6 mph WNW7.4 kmh WNW 8.1 mph13.0 kmh 29.84 in1010.5 mb - 0.00 in0.0 mm 0.00 in0.0 mm
12:10 PM 64.2°F17.9°C 48.6°F9.2°C 57% 4.6 mph WNW7.4 kmh WNW 8.1 mph13.0 kmh 29.84 in1010.5 mb - 0.00 in0.0 mm 0.00 in0.0 mm
12:20 PM 65.0°F18.3°C 48.9°F9.4°C 56% 5.8 mph NW9.3 kmh NW 8.1 mph13.0 kmh 29.84 in1010.5 mb - 0.00 in0.0 mm 0.00 in0.0 mm
12:30 PM 65.1°F18.4°C 48.5°F9.2°C 55% 4.6 mph NW7.4 kmh NW 8.1 mph13.0 kmh 29.85 in1010.8 mb - 0.00 in0.0 mm 0.00 in0.0 mm
12:40 PM 65.0°F18.3°C 48.4°F9.1°C 55% 3.5 mph WNW5.6 kmh WNW 11.5 mph18.5 kmh 29.85 in1010.8 mb - 0.00 in0.0 mm 0.00 in0.0 mm
12:50 PM 64.7°F18.2°C 48.6°F9.2°C 56% 4.6 mph NW7.4 kmh NW 12.7 mph20.4 kmh 29.85 in1010.8 mb - 0.00 in0.0 mm 0.00 in0.0 mm
01:00 PM 61.9°F16.6°C 51.3°F10.7°C 68% 5.8 mph NW9.3 kmh NW 11.5 mph18.5 kmh 29.86 in1011.2 mb - 0.01 in0.3 mm 0.01 in0.3 mm
01:10 PM 60.3°F15.7°C 50.5°F10.3°C 70% 1.2 mph NW1.9 kmh NW 2.3 mph3.7 kmh 29.85 in1010.8 mb - 0.01 in0.3 mm 0.01 in0.3 mm
01:20 PM 61.6°F16.4°C 50.9°F10.5°C 68% 3.5 mph WNW5.6 kmh WNW 6.9 mph11.1 kmh 29.85 in1010.8 mb - 0.01 in0.3 mm 0.01 in0.3 mm
01:30 PM 63.8°F17.7°C 49.7°F9.8°C 60% 5.8 mph WNW9.3 kmh WNW 11.5 mph18.5 kmh 29.85 in1010.8 mb - 0.01 in0.3 mm 0.01 in0.3 mm
01:40 PM 64.7°F18.2°C 49.5°F9.7°C 58% 6.9 mph NW11.1 kmh NW 10.4 mph16.7 kmh 29.86 in1011.2 mb - 0.01 in0.3 mm 0.01 in0.3 mm
01:50 PM 64.3°F17.9°C 50.6°F10.3°C 61% 4.6 mph WNW7.4 kmh WNW 8.1 mph13.0 kmh 29.86 in1011.2 mb - 0.01 in0.3 mm 0.01 in0.3 mm
02:00 PM 64.3°F17.9°C 49.2°F9.6°C 58% 3.5 mph WNW5.6 kmh WNW 8.1 mph13.0 kmh 29.86 in1011.2 mb - 0.00 in0.0 mm 0.01 in0.3 mm
02:10 PM 65.0°F18.3°C 49.4°F9.7°C 57% 3.5 mph WNW5.6 kmh WNW 11.5 mph18.5 kmh 29.85 in1010.8 mb - 0.00 in0.0 mm 0.01 in0.3 mm
02:20 PM 65.0°F18.3°C 47.4°F8.6°C 53% 9.2 mph NW14.8 kmh NW 13.8 mph22.2 kmh 29.86 in1011.2 mb - 0.00 in0.0 mm 0.01 in0.3 mm
02:30 PM 64.7°F18.2°C 46.7°F8.2°C 52% 8.1 mph W13.0 kmh W 13.8 mph22.2 kmh 29.86 in1011.2 mb - 0.00 in0.0 mm 0.01 in0.3 mm
02:40 PM 65.2°F18.4°C 50.0°F10.0°C 58% 3.5 mph WSW5.6 kmh WSW 6.9 mph11.1 kmh 29.86 in1011.2 mb - 0.00 in0.0 mm 0.01 in0.3 mm
02:50 PM 64.8°F18.2°C 49.7°F9.8°C 58% 5.8 mph W9.3 kmh W 11.5 mph18.5 kmh 29.85 in1010.8 mb - 0.00 in0.0 mm 0.01 in0.3 mm
03:00 PM 66.6°F19.2°C 47.4°F8.6°C 50% 4.6 mph NW7.4 kmh NW 11.5 mph18.5 kmh 29.86 in1011.2 mb - 0.00 in0.0 mm 0.01 in0.3 mm
03:10 PM 67.3°F19.6°C 48.5°F9.2°C 51% 4.6 mph W7.4 kmh W 8.1 mph13.0 kmh 29.86 in1011.2 mb - 0.00 in0.0 mm 0.01 in0.3 mm
03:20 PM 67.6°F19.8°C 47.8°F8.8°C 49% 3.5 mph NW5.6 kmh NW 5.8 mph9.3 kmh 29.86 in1011.2 mb - 0.00 in0.0 mm 0.01 in0.3 mm
03:30 PM 66.7°F19.3°C 48.0°F8.9°C 51% 5.8 mph WNW9.3 kmh WNW 11.5 mph18.5 kmh 29.86 in1011.2 mb - 0.00 in0.0 mm 0.01 in0.3 mm
03:40 PM 65.9°F18.8°C 47.2°F8.4°C 51% 8.1 mph NW13.0 kmh NW 11.5 mph18.5 kmh 29.86 in1011.2 mb - 0.00 in0.0 mm 0.01 in0.3 mm
03:50 PM 65.8°F18.8°C 47.2°F8.4°C 51% 5.8 mph NW9.3 kmh NW 9.2 mph14.8 kmh 29.86 in1011.2 mb - 0.00 in0.0 mm 0.01 in0.3 mm
04:00 PM 65.7°F18.7°C 46.5°F8.1°C 50% 2.3 mph WNW3.7 kmh WNW 2.3 mph3.7 kmh 29.86 in1011.2 mb - 0.00 in0.0 mm 0.01 in0.3 mm
04:10 PM 65.6°F18.7°C 45.9°F7.7°C 49% 2.3 mph WNW3.7 kmh WNW 4.6 mph7.4 kmh 29.86 in1011.2 mb - 0.00 in0.0 mm 0.01 in0.3 mm
04:20 PM 65.5°F18.6°C 46.4°F8.0°C 50% 4.6 mph W7.4 kmh W 6.9 mph11.1 kmh 29.86 in1011.2 mb - 0.00 in0.0 mm 0.01 in0.3 mm
04:30 PM 65.2°F18.4°C 46.6°F8.1°C 51% 5.8 mph WNW9.3 kmh WNW 8.1 mph13.0 kmh 29.86 in1011.2 mb - 0.00 in0.0 mm 0.01 in0.3 mm
04:40 PM 65.0°F18.3°C 46.9°F8.3°C 52% 4.6 mph WNW7.4 kmh WNW 8.1 mph13.0 kmh 29.87 in1011.5 mb - 0.00 in0.0 mm 0.01 in0.3 mm
04:50 PM 64.9°F18.3°C 46.3°F7.9°C 51% 5.8 mph WNW9.3 kmh WNW 8.1 mph13.0 kmh 29.87 in1011.5 mb - 0.00 in0.0 mm 0.01 in0.3 mm
05:00 PM 65.2°F18.4°C 46.1°F7.8°C 50% 4.6 mph NW7.4 kmh NW 11.5 mph18.5 kmh 29.87 in1011.5 mb - 0.00 in0.0 mm 0.01 in0.3 mm
05:10 PM 65.1°F18.4°C 46.0°F7.8°C 50% 3.5 mph WNW5.6 kmh WNW 5.8 mph9.3 kmh 29.87 in1011.5 mb - 0.00 in0.0 mm 0.01 in0.3 mm
05:20 PM 65.5°F18.6°C 46.3°F7.9°C 50% 5.8 mph NW9.3 kmh NW 11.5 mph18.5 kmh 29.87 in1011.5 mb - 0.00 in0.0 mm 0.01 in0.3 mm
05:30 PM 65.4°F18.6°C 46.8°F8.2°C 51% 4.6 mph WSW7.4 kmh WSW 8.1 mph13.0 kmh 29.87 in1011.5 mb - 0.00 in0.0 mm 0.01 in0.3 mm
05:40 PM 65.6°F18.7°C 51.8°F11.0°C 61% 5.8 mph W9.3 kmh W 9.2 mph14.8 kmh 29.88 in1011.9 mb - 0.00 in0.0 mm 0.01 in0.3 mm
05:50 PM 63.7°F17.6°C 53.0°F11.7°C 68% 6.9 mph W11.1 kmh W 11.5 mph18.5 kmh 29.88 in1011.9 mb - 0.00 in0.0 mm 0.01 in0.3 mm
06:00 PM 63.5°F17.5°C 53.1°F11.7°C 69% 2.3 mph W3.7 kmh W 6.9 mph11.1 kmh 29.88 in1011.9 mb - 0.00 in0.0 mm 0.01 in0.3 mm
06:10 PM 63.8°F17.7°C 51.8°F11.0°C 65% 6.9 mph NW11.1 kmh NW 8.1 mph13.0 kmh 29.88 in1011.9 mb - 0.00 in0.0 mm 0.01 in0.3 mm
06:20 PM 64.4°F18.0°C 52.3°F11.3°C 65% 3.5 mph W5.6 kmh W 5.8 mph9.3 kmh 29.88 in1011.9 mb - 0.00 in0.0 mm 0.01 in0.3 mm
06:30 PM 65.2°F18.4°C 51.9°F11.1°C 62% 2.3 mph WNW3.7 kmh WNW 5.8 mph9.3 kmh 29.88 in1011.9 mb - 0.00 in0.0 mm 0.01 in0.3 mm
06:40 PM 64.6°F18.1°C 47.6°F8.7°C 54% 5.8 mph NW9.3 kmh NW 12.7 mph20.4 kmh 29.89 in1012.2 mb - 0.00 in0.0 mm 0.01 in0.3 mm
06:50 PM 63.6°F17.6°C 47.6°F8.7°C 56% 6.9 mph NW11.1 kmh NW 11.5 mph18.5 kmh 29.89 in1012.2 mb - 0.00 in0.0 mm 0.01 in0.3 mm
07:00 PM 62.0°F16.7°C 48.0°F8.9°C 60% 6.9 mph NW11.1 kmh NW 13.8 mph22.2 kmh 29.89 in1012.2 mb - 0.00 in0.0 mm 0.01 in0.3 mm
07:10 PM 61.5°F16.4°C 47.9°F8.8°C 61% 4.6 mph NW7.4 kmh NW 9.2 mph14.8 kmh 29.89 in1012.2 mb - 0.00 in0.0 mm 0.01 in0.3 mm
07:20 PM 60.9°F16.1°C 47.4°F8.6°C 61% 3.5 mph NW5.6 kmh NW 5.8 mph9.3 kmh 29.89 in1012.2 mb - 0.00 in0.0 mm 0.01 in0.3 mm
07:30 PM 60.7°F15.9°C 48.0°F8.9°C 63% 4.6 mph NW7.4 kmh NW 5.8 mph9.3 kmh 29.90 in1012.5 mb - 0.00 in0.0 mm 0.01 in0.3 mm
07:40 PM 60.1°F15.6°C 47.9°F8.8°C 64% 1.2 mph NW1.9 kmh NW 5.8 mph9.3 kmh 29.90 in1012.5 mb - 0.00 in0.0 mm 0.01 in0.3 mm
07:50 PM 59.7°F15.4°C 47.5°F8.6°C 64% 2.3 mph NW3.7 kmh NW 5.8 mph9.3 kmh 29.91 in1012.9 mb - 0.00 in0.0 mm 0.01 in0.3 mm
08:00 PM 59.4°F15.2°C 47.6°F8.7°C 65% 3.5 mph NW5.6 kmh NW 5.8 mph9.3 kmh 29.91 in1012.9 mb - 0.00 in0.0 mm 0.01 in0.3 mm
08:10 PM 59.0°F15.0°C 47.7°F8.7°C 66% 1.2 mph NW1.9 kmh NW 2.3 mph3.7 kmh 29.91 in1012.9 mb - 0.00 in0.0 mm 0.01 in0.3 mm
08:20 PM 58.7°F14.8°C 47.8°F8.8°C 67% Calm Calm -- 29.91 in1012.9 mb - 0.00 in0.0 mm 0.01 in0.3 mm
08:30 PM 58.5°F14.7°C 47.6°F8.7°C 67% 2.3 mph NW3.7 kmh NW 2.3 mph3.7 kmh 29.92 in1013.2 mb - 0.00 in0.0 mm 0.01 in0.3 mm
08:40 PM 58.7°F14.8°C 47.4°F8.6°C 66% Calm Calm -- 29.92 in1013.2 mb - 0.00 in0.0 mm 0.01 in0.3 mm
08:50 PM 58.7°F14.8°C 47.0°F8.3°C 65% Calm Calm 1.2 mph1.9 kmh 29.92 in1013.2 mb - 0.00 in0.0 mm 0.01 in0.3 mm
09:00 PM 58.5°F14.7°C 47.2°F8.4°C 66% Calm Calm 2.3 mph3.7 kmh 29.92 in1013.2 mb - 0.00 in0.0 mm 0.01 in0.3 mm
09:10 PM 58.2°F14.6°C 46.8°F8.2°C 66% 2.3 mph WNW3.7 kmh WNW 5.8 mph9.3 kmh 29.92 in1013.2 mb - 0.00 in0.0 mm 0.01 in0.3 mm
09:20 PM 57.9°F14.4°C 47.0°F8.3°C 67% 4.6 mph NW7.4 kmh NW 6.9 mph11.1 kmh 29.92 in1013.2 mb - 0.00 in0.0 mm 0.01 in0.3 mm
09:30 PM 57.6°F14.2°C 46.7°F8.2°C 67% 2.3 mph NW3.7 kmh NW 5.8 mph9.3 kmh 29.93 in1013.5 mb - 0.00 in0.0 mm 0.01 in0.3 mm
09:40 PM 57.3°F14.1°C 46.8°F8.2°C 68% Calm Calm 5.8 mph9.3 kmh 29.92 in1013.2 mb - 0.00 in0.0 mm 0.01 in0.3 mm
09:50 PM 57.1°F13.9°C 46.6°F8.1°C 68% 2.3 mph NW3.7 kmh NW 2.3 mph3.7 kmh 29.92 in1013.2 mb - 0.00 in0.0 mm 0.01 in0.3 mm
10:00 PM 57.0°F13.9°C 46.5°F8.1°C 68% 1.2 mph NW1.9 kmh NW 5.8 mph9.3 kmh 29.92 in1013.2 mb - 0.00 in0.0 mm 0.01 in0.3 mm
10:10 PM 56.7°F13.7°C 46.6°F8.1°C 69% 2.3 mph W3.7 kmh W 4.6 mph7.4 kmh 29.93 in1013.5 mb - 0.00 in0.0 mm 0.01 in0.3 mm
10:20 PM 55.8°F13.2°C 46.5°F8.1°C 71% Calm Calm -- 29.93 in1013.5 mb - 0.00 in0.0 mm 0.01 in0.3 mm
10:30 PM 55.3°F12.9°C 46.4°F8.0°C 72% Calm Calm -- 29.93 in1013.5 mb - 0.00 in0.0 mm 0.01 in0.3 mm
10:40 PM 55.1°F12.8°C 46.2°F7.9°C 72% Calm Calm -- 29.93 in1013.5 mb - 0.00 in0.0 mm 0.01 in0.3 mm
10:50 PM 54.9°F12.7°C 46.4°F8.0°C 73% Calm Calm -- 29.93 in1013.5 mb - 0.00 in0.0 mm 0.01 in0.3 mm
11:00 PM 54.6°F12.6°C 46.1°F7.8°C 73% Calm Calm -- 29.93 in1013.5 mb - 0.00 in0.0 mm 0.06 in1.5 mm
11:10 PM 54.3°F12.4°C 46.2°F7.9°C 74% 1.2 mph WNW1.9 kmh WNW 4.6 mph7.4 kmh 29.93 in1013.5 mb - 0.00 in0.0 mm 0.06 in1.5 mm
11:20 PM 54.0°F12.2°C 46.2°F7.9°C 75% Calm Calm -- 29.93 in1013.5 mb - 0.00 in0.0 mm 0.06 in1.5 mm
11:30 PM 53.6°F12.0°C 46.2°F7.9°C 76% Calm Calm 2.3 mph3.7 kmh 29.93 in1013.5 mb - 0.00 in0.0 mm 0.06 in1.5 mm
11:40 PM 53.8°F12.1°C 46.4°F8.0°C 76% 2.3 mph NW3.7 kmh NW 5.8 mph9.3 kmh 29.93 in1013.5 mb - 0.00 in0.0 mm 0.06 in1.5 mm
11:50 PM 53.6°F12.0°C 46.2°F7.9°C 76% 2.3 mph NW3.7 kmh NW 4.6 mph7.4 kmh 29.93 in1013.5 mb - 0.00 in0.0 mm 0.06 in1.5 mm